sensor_id;sensor_type;location;lat;lon;timestamp;temperature;humidity
67196;DHT22;54122;53.538;49.366;2023-07-31T00:01:12;17.30;93.10
67196;DHT22;54122;53.538;49.366;2023-07-31T00:03:38;17.20;93.00
67196;DHT22;54122;53.538;49.366;2023-07-31T00:06:04;17.20;93.00
67196;DHT22;54122;53.538;49.366;2023-07-31T00:08:31;17.20;93.00
67196;DHT22;54122;53.538;49.366;2023-07-31T00:10:57;17.10;93.00
67196;DHT22;54122;53.538;49.366;2023-07-31T00:13:23;17.10;93.00
67196;DHT22;54122;53.538;49.366;2023-07-31T00:15:49;17.10;93.10
67196;DHT22;54122;53.538;49.366;2023-07-31T00:18:15;17.10;93.10
67196;DHT22;54122;53.538;49.366;2023-07-31T00:20:42;17.20;92.80
67196;DHT22;54122;53.538;49.366;2023-07-31T00:23:08;17.30;92.60
67196;DHT22;54122;53.538;49.366;2023-07-31T00:25:34;17.20;92.60
67196;DHT22;54122;53.538;49.366;2023-07-31T00:28:00;17.20;92.60
67196;DHT22;54122;53.538;49.366;2023-07-31T00:30:26;17.20;92.70
67196;DHT22;54122;53.538;49.366;2023-07-31T00:32:52;17.10;92.50
67196;DHT22;54122;53.538;49.366;2023-07-31T00:35:19;17.10;92.50
67196;DHT22;54122;53.538;49.366;2023-07-31T00:37:45;17.10;92.40
67196;DHT22;54122;53.538;49.366;2023-07-31T00:40:11;17.20;92.40
67196;DHT22;54122;53.538;49.366;2023-07-31T00:42:39;17.20;92.30
67196;DHT22;54122;53.538;49.366;2023-07-31T00:45:06;17.20;92.10
67196;DHT22;54122;53.538;49.366;2023-07-31T00:47:32;17.20;91.90
67196;DHT22;54122;53.538;49.366;2023-07-31T00:49:58;17.20;91.70
67196;DHT22;54122;53.538;49.366;2023-07-31T00:52:24;17.20;91.50
67196;DHT22;54122;53.538;49.366;2023-07-31T00:54:51;17.20;91.50
67196;DHT22;54122;53.538;49.366;2023-07-31T00:57:18;17.20;91.30
67196;DHT22;54122;53.538;49.366;2023-07-31T00:59:44;17.20;91.30
67196;DHT22;54122;53.538;49.366;2023-07-31T01:02:12;17.30;91.00
67196;DHT22;54122;53.538;49.366;2023-07-31T01:04:38;17.40;90.70
67196;DHT22;54122;53.538;49.366;2023-07-31T01:10:11;17.50;90.10
67196;DHT22;54122;53.538;49.366;2023-07-31T01:12:39;17.80;89.40
67196;DHT22;54122;53.538;49.366;2023-07-31T01:15:08;18.00;87.40
67196;DHT22;54122;53.538;49.366;2023-07-31T01:17:37;18.20;85.50
67196;DHT22;54122;53.538;49.366;2023-07-31T01:20:09;18.30;84.20
67196;DHT22;54122;53.538;49.366;2023-07-31T01:28:10;18.60;81.80
67196;DHT22;54122;53.538;49.366;2023-07-31T01:30:44;18.70;81.30
67196;DHT22;54122;53.538;49.366;2023-07-31T01:33:11;18.70;80.80
67196;DHT22;54122;53.538;49.366;2023-07-31T01:35:37;18.70;80.10
67196;DHT22;54122;53.538;49.366;2023-07-31T01:38:05;18.70;80.00
67196;DHT22;54122;53.538;49.366;2023-07-31T01:40:31;18.70;78.90
67196;DHT22;54122;53.538;49.366;2023-07-31T01:42:57;18.70;78.80
67196;DHT22;54122;53.538;49.366;2023-07-31T01:45:24;18.80;78.80
67196;DHT22;54122;53.538;49.366;2023-07-31T01:47:50;18.80;78.70
67196;DHT22;54122;53.538;49.366;2023-07-31T01:50:16;18.80;78.70
67196;DHT22;54122;53.538;49.366;2023-07-31T01:52:42;18.80;78.70
67196;DHT22;54122;53.538;49.366;2023-07-31T01:55:08;18.80;78.50
67196;DHT22;54122;53.538;49.366;2023-07-31T01:57:36;18.80;78.10
67196;DHT22;54122;53.538;49.366;2023-07-31T02:00:03;18.80;77.60
67196;DHT22;54122;53.538;49.366;2023-07-31T02:02:29;18.80;77.70
67196;DHT22;54122;53.538;49.366;2023-07-31T02:04:55;18.80;77.80
67196;DHT22;54122;53.538;49.366;2023-07-31T02:07:21;18.90;77.70
67196;DHT22;54122;53.538;49.366;2023-07-31T02:09:47;18.90;77.50
67196;DHT22;54122;53.538;49.366;2023-07-31T02:12:14;18.90;77.40
67196;DHT22;54122;53.538;49.366;2023-07-31T02:14:40;18.90;77.50
67196;DHT22;54122;53.538;49.366;2023-07-31T02:17:07;18.90;77.30
67196;DHT22;54122;53.538;49.366;2023-07-31T02:19:33;18.90;77.00
67196;DHT22;54122;53.538;49.366;2023-07-31T02:21:59;18.90;77.10
67196;DHT22;54122;53.538;49.366;2023-07-31T02:24:25;18.90;77.20
67196;DHT22;54122;53.538;49.366;2023-07-31T02:26:51;18.90;77.10
67196;DHT22;54122;53.538;49.366;2023-07-31T02:29:18;18.90;76.90
67196;DHT22;54122;53.538;49.366;2023-07-31T02:31:44;18.90;76.90
67196;DHT22;54122;53.538;49.366;2023-07-31T02:34:10;18.90;76.80
67196;DHT22;54122;53.538;49.366;2023-07-31T02:36:37;18.90;76.80
67196;DHT22;54122;53.538;49.366;2023-07-31T02:39:03;18.90;76.60
67196;DHT22;54122;53.538;49.366;2023-07-31T02:41:30;19.00;76.30
67196;DHT22;54122;53.538;49.366;2023-07-31T02:43:56;19.00;76.10
67196;DHT22;54122;53.538;49.366;2023-07-31T02:46:22;19.00;76.10
67196;DHT22;54122;53.538;49.366;2023-07-31T02:48:50;19.10;75.90
67196;DHT22;54122;53.538;49.366;2023-07-31T02:51:17;19.10;75.80
67196;DHT22;54122;53.538;49.366;2023-07-31T02:53:43;19.20;75.60
67196;DHT22;54122;53.538;49.366;2023-07-31T02:56:09;19.30;75.30
67196;DHT22;54122;53.538;49.366;2023-07-31T02:58:36;19.30;75.20
67196;DHT22;54122;53.538;49.366;2023-07-31T03:01:02;19.30;75.00
67196;DHT22;54122;53.538;49.366;2023-07-31T03:03:28;19.30;74.50
67196;DHT22;54122;53.538;49.366;2023-07-31T03:05:54;19.20;74.60
67196;DHT22;54122;53.538;49.366;2023-07-31T03:08:20;19.30;74.50
67196;DHT22;54122;53.538;49.366;2023-07-31T03:10:47;19.30;74.30
67196;DHT22;54122;53.538;49.366;2023-07-31T03:13:13;19.40;74.30
67196;DHT22;54122;53.538;49.366;2023-07-31T03:15:42;19.40;74.20
67196;DHT22;54122;53.538;49.366;2023-07-31T03:18:09;19.50;73.70
67196;DHT22;54122;53.538;49.366;2023-07-31T03:20:35;19.50;73.50
67196;DHT22;54122;53.538;49.366;2023-07-31T03:23:01;19.50;73.50
67196;DHT22;54122;53.538;49.366;2023-07-31T03:25:29;19.50;73.20
67196;DHT22;54122;53.538;49.366;2023-07-31T03:27:55;19.40;73.40
67196;DHT22;54122;53.538;49.366;2023-07-31T03:30:21;19.40;73.60
67196;DHT22;54122;53.538;49.366;2023-07-31T03:32:47;19.40;73.50
67196;DHT22;54122;53.538;49.366;2023-07-31T03:35:14;19.50;74.40
67196;DHT22;54122;53.538;49.366;2023-07-31T03:37:40;19.50;73.20
67196;DHT22;54122;53.538;49.366;2023-07-31T03:40:07;19.50;73.10
67196;DHT22;54122;53.538;49.366;2023-07-31T03:42:33;19.40;73.10
67196;DHT22;54122;53.538;49.366;2023-07-31T03:44:59;19.50;73.10
67196;DHT22;54122;53.538;49.366;2023-07-31T03:47:27;19.50;72.80
67196;DHT22;54122;53.538;49.366;2023-07-31T03:49:53;19.50;72.70
67196;DHT22;54122;53.538;49.366;2023-07-31T03:52:19;19.60;72.80
67196;DHT22;54122;53.538;49.366;2023-07-31T03:54:45;19.60;72.60
67196;DHT22;54122;53.538;49.366;2023-07-31T03:57:11;19.60;72.40
67196;DHT22;54122;53.538;49.366;2023-07-31T03:59:38;19.60;72.30
67196;DHT22;54122;53.538;49.366;2023-07-31T04:02:05;19.60;72.20
67196;DHT22;54122;53.538;49.366;2023-07-31T04:04:31;19.60;72.20
67196;DHT22;54122;53.538;49.366;2023-07-31T04:06:57;19.70;72.00
67196;DHT22;54122;53.538;49.366;2023-07-31T04:09:23;19.80;72.00
67196;DHT22;54122;53.538;49.366;2023-07-31T04:11:49;19.90;71.80
67196;DHT22;54122;53.538;49.366;2023-07-31T04:14:16;20.00;71.30
67196;DHT22;54122;53.538;49.366;2023-07-31T04:16:42;20.10;70.60
67196;DHT22;54122;53.538;49.366;2023-07-31T04:19:08;20.10;70.50
67196;DHT22;54122;53.538;49.366;2023-07-31T04:21:36;20.00;70.30
67196;DHT22;54122;53.538;49.366;2023-07-31T04:24:02;20.00;70.60
67196;DHT22;54122;53.538;49.366;2023-07-31T04:26:28;20.00;70.60
67196;DHT22;54122;53.538;49.366;2023-07-31T04:28:55;20.00;70.40
67196;DHT22;54122;53.538;49.366;2023-07-31T04:31:21;20.10;69.90
67196;DHT22;54122;53.538;49.366;2023-07-31T04:33:47;20.10;70.00
67196;DHT22;54122;53.538;49.366;2023-07-31T04:36:13;20.20;69.90
67196;DHT22;54122;53.538;49.366;2023-07-31T04:38:39;20.40;69.10
67196;DHT22;54122;53.538;49.366;2023-07-31T04:41:07;20.50;68.60
67196;DHT22;54122;53.538;49.366;2023-07-31T04:43:33;20.60;67.80
67196;DHT22;54122;53.538;49.366;2023-07-31T04:45:59;20.70;67.70
67196;DHT22;54122;53.538;49.366;2023-07-31T04:48:26;20.70;67.40
67196;DHT22;54122;53.538;49.366;2023-07-31T04:50:52;20.90;67.20
67196;DHT22;54122;53.538;49.366;2023-07-31T04:53:19;21.10;66.30
67196;DHT22;54122;53.538;49.366;2023-07-31T04:55:45;21.30;65.50
67196;DHT22;54122;53.538;49.366;2023-07-31T04:58:11;21.50;65.30
67196;DHT22;54122;53.538;49.366;2023-07-31T05:00:37;21.70;64.20
67196;DHT22;54122;53.538;49.366;2023-07-31T05:03:03;21.60;64.00
67196;DHT22;54122;53.538;49.366;2023-07-31T05:05:30;21.40;64.40
67196;DHT22;54122;53.538;49.366;2023-07-31T05:07:56;21.30;64.70
67196;DHT22;54122;53.538;49.366;2023-07-31T05:10:23;21.20;65.10
67196;DHT22;54122;53.538;49.366;2023-07-31T05:12:49;21.20;65.40
67196;DHT22;54122;53.538;49.366;2023-07-31T05:15:15;21.30;65.20
67196;DHT22;54122;53.538;49.366;2023-07-31T05:17:41;21.20;65.10
67196;DHT22;54122;53.538;49.366;2023-07-31T05:20:08;21.10;65.50
67196;DHT22;54122;53.538;49.366;2023-07-31T05:22:35;21.00;66.00
67196;DHT22;54122;53.538;49.366;2023-07-31T05:25:01;21.00;66.30
67196;DHT22;54122;53.538;49.366;2023-07-31T05:27:27;21.00;66.30
67196;DHT22;54122;53.538;49.366;2023-07-31T05:29:53;21.00;66.20
67196;DHT22;54122;53.538;49.366;2023-07-31T05:32:19;21.10;66.00
67196;DHT22;54122;53.538;49.366;2023-07-31T05:34:45;21.10;65.30
67196;DHT22;54122;53.538;49.366;2023-07-31T05:37:12;21.10;64.70
67196;DHT22;54122;53.538;49.366;2023-07-31T05:39:38;21.00;65.00
67196;DHT22;54122;53.538;49.366;2023-07-31T05:42:05;20.90;65.20
67196;DHT22;54122;53.538;49.366;2023-07-31T05:44:31;20.80;65.70
67196;DHT22;54122;53.538;49.366;2023-07-31T05:46:57;20.70;65.90
67196;DHT22;54122;53.538;49.366;2023-07-31T05:49:23;20.70;65.90
67196;DHT22;54122;53.538;49.366;2023-07-31T05:51:49;20.60;65.60
67196;DHT22;54122;53.538;49.366;2023-07-31T05:54:15;20.60;65.70
67196;DHT22;54122;53.538;49.366;2023-07-31T05:56:42;20.80;65.40
67196;DHT22;54122;53.538;49.366;2023-07-31T05:59:09;20.90;64.70
67196;DHT22;54122;53.538;49.366;2023-07-31T06:01:36;21.10;64.40
67196;DHT22;54122;53.538;49.366;2023-07-31T06:04:02;21.10;63.40
67196;DHT22;54122;53.538;49.366;2023-07-31T06:06:29;21.10;63.20
67196;DHT22;54122;53.538;49.366;2023-07-31T06:08:55;21.00;63.20
67196;DHT22;54122;53.538;49.366;2023-07-31T06:11:21;21.00;63.50
67196;DHT22;54122;53.538;49.366;2023-07-31T06:13:48;21.00;63.70
67196;DHT22;54122;53.538;49.366;2023-07-31T06:16:15;20.90;63.30
67196;DHT22;54122;53.538;49.366;2023-07-31T06:18:41;20.80;63.70
67196;DHT22;54122;53.538;49.366;2023-07-31T06:21:08;20.60;64.00
67196;DHT22;54122;53.538;49.366;2023-07-31T06:23:35;20.40;64.90
67196;DHT22;54122;53.538;49.366;2023-07-31T06:26:01;20.30;65.10
67196;DHT22;54122;53.538;49.366;2023-07-31T06:28:28;20.30;65.30
67196;DHT22;54122;53.538;49.366;2023-07-31T06:30:58;20.50;65.20
67196;DHT22;54122;53.538;49.366;2023-07-31T06:33:24;20.70;64.30
67196;DHT22;54122;53.538;49.366;2023-07-31T06:35:51;20.80;63.90
67196;DHT22;54122;53.538;49.366;2023-07-31T06:38:21;20.90;63.70
67196;DHT22;54122;53.538;49.366;2023-07-31T06:40:48;20.90;63.40
67196;DHT22;54122;53.538;49.366;2023-07-31T06:43:15;20.90;63.70
67196;DHT22;54122;53.538;49.366;2023-07-31T06:45:41;20.90;64.40
67196;DHT22;54122;53.538;49.366;2023-07-31T06:48:07;20.80;63.70
67196;DHT22;54122;53.538;49.366;2023-07-31T06:50:33;20.90;63.90
67196;DHT22;54122;53.538;49.366;2023-07-31T06:52:59;20.90;63.90
67196;DHT22;54122;53.538;49.366;2023-07-31T06:55:26;21.00;63.60
67196;DHT22;54122;53.538;49.366;2023-07-31T06:57:54;21.10;63.60
67196;DHT22;54122;53.538;49.366;2023-07-31T07:00:21;21.10;63.20
67196;DHT22;54122;53.538;49.366;2023-07-31T07:02:48;21.20;62.90
67196;DHT22;54122;53.538;49.366;2023-07-31T07:05:18;21.30;62.70
67196;DHT22;54122;53.538;49.366;2023-07-31T07:07:45;21.50;62.40
67196;DHT22;54122;53.538;49.366;2023-07-31T07:10:11;21.70;61.60
67196;DHT22;54122;53.538;49.366;2023-07-31T07:12:38;21.90;61.10
67196;DHT22;54122;53.538;49.366;2023-07-31T07:15:04;22.00;60.70
67196;DHT22;54122;53.538;49.366;2023-07-31T07:17:30;21.90;61.00
67196;DHT22;54122;53.538;49.366;2023-07-31T07:20:00;21.90;61.30
67196;DHT22;54122;53.538;49.366;2023-07-31T07:22:26;21.80;61.50
67196;DHT22;54122;53.538;49.366;2023-07-31T07:24:53;21.70;62.00
67196;DHT22;54122;53.538;49.366;2023-07-31T07:27:20;21.60;62.30
67196;DHT22;54122;53.538;49.366;2023-07-31T07:29:46;21.50;62.40
67196;DHT22;54122;53.538;49.366;2023-07-31T07:32:13;21.50;62.50
67196;DHT22;54122;53.538;49.366;2023-07-31T07:34:39;21.60;62.60
67196;DHT22;54122;53.538;49.366;2023-07-31T07:37:05;21.70;61.90
67196;DHT22;54122;53.538;49.366;2023-07-31T07:39:32;21.80;61.80
67196;DHT22;54122;53.538;49.366;2023-07-31T07:41:58;22.00;61.90
67196;DHT22;54122;53.538;49.366;2023-07-31T07:44:27;22.20;60.70
67196;DHT22;54122;53.538;49.366;2023-07-31T07:46:54;22.50;59.70
67196;DHT22;54122;53.538;49.366;2023-07-31T07:49:20;22.80;59.10
67196;DHT22;54122;53.538;49.366;2023-07-31T07:51:48;23.10;58.30
67196;DHT22;54122;53.538;49.366;2023-07-31T07:54:15;23.40;57.60
67196;DHT22;54122;53.538;49.366;2023-07-31T07:56:47;23.50;56.40
67196;DHT22;54122;53.538;49.366;2023-07-31T07:59:13;23.90;55.40
67196;DHT22;54122;53.538;49.366;2023-07-31T08:01:39;24.30;53.70
67196;DHT22;54122;53.538;49.366;2023-07-31T08:04:05;24.10;53.50
67196;DHT22;54122;53.538;49.366;2023-07-31T08:06:31;23.70;54.20
67196;DHT22;54122;53.538;49.366;2023-07-31T08:08:57;23.40;55.70
67196;DHT22;54122;53.538;49.366;2023-07-31T08:11:23;23.50;55.80
67196;DHT22;54122;53.538;49.366;2023-07-31T08:13:50;23.90;55.20
67196;DHT22;54122;53.538;49.366;2023-07-31T08:16:16;24.10;54.40
67196;DHT22;54122;53.538;49.366;2023-07-31T08:18:42;24.60;53.40
67196;DHT22;54122;53.538;49.366;2023-07-31T08:21:08;24.70;52.50
67196;DHT22;54122;53.538;49.366;2023-07-31T08:23:35;24.50;52.80
67196;DHT22;54122;53.538;49.366;2023-07-31T08:26:01;24.30;53.80
67196;DHT22;54122;53.538;49.366;2023-07-31T08:28:27;24.50;53.30
67196;DHT22;54122;53.538;49.366;2023-07-31T08:30:53;24.70;52.50
67196;DHT22;54122;53.538;49.366;2023-07-31T08:33:19;24.60;52.40
67196;DHT22;54122;53.538;49.366;2023-07-31T08:35:45;24.60;52.80
67196;DHT22;54122;53.538;49.366;2023-07-31T08:38:12;24.60;52.80
67196;DHT22;54122;53.538;49.366;2023-07-31T08:40:39;24.60;52.80
67196;DHT22;54122;53.538;49.366;2023-07-31T08:43:05;24.60;52.70
67196;DHT22;54122;53.538;49.366;2023-07-31T08:45:32;24.30;53.20
67196;DHT22;54122;53.538;49.366;2023-07-31T08:47:59;24.10;53.80
67196;DHT22;54122;53.538;49.366;2023-07-31T08:50:25;23.80;54.90
67196;DHT22;54122;53.538;49.366;2023-07-31T08:52:52;23.50;55.80
67196;DHT22;54122;53.538;49.366;2023-07-31T08:55:19;23.30;56.10
67196;DHT22;54122;53.538;49.366;2023-07-31T08:57:51;23.20;56.40
67196;DHT22;54122;53.538;49.366;2023-07-31T09:00:20;23.20;56.80
67196;DHT22;54122;53.538;49.366;2023-07-31T09:02:59;23.20;56.30
67196;DHT22;54122;53.538;49.366;2023-07-31T09:05:29;23.30;56.20
67196;DHT22;54122;53.538;49.366;2023-07-31T09:07:57;23.30;56.30
67196;DHT22;54122;53.538;49.366;2023-07-31T09:10:24;23.20;56.10
67196;DHT22;54122;53.538;49.366;2023-07-31T09:12:53;23.10;56.30
67196;DHT22;54122;53.538;49.366;2023-07-31T09:15:20;23.30;56.30
67196;DHT22;54122;53.538;49.366;2023-07-31T09:17:47;23.40;55.10
67196;DHT22;54122;53.538;49.366;2023-07-31T09:22:42;23.50;55.10
67196;DHT22;54122;53.538;49.366;2023-07-31T09:25:20;23.70;54.70
67196;DHT22;54122;53.538;49.366;2023-07-31T09:27:51;24.20;54.00
67196;DHT22;54122;53.538;49.366;2023-07-31T09:30:18;24.50;52.80
67196;DHT22;54122;53.538;49.366;2023-07-31T09:32:45;24.70;52.00
67196;DHT22;54122;53.538;49.366;2023-07-31T09:35:20;24.80;51.90
67196;DHT22;54122;53.538;49.366;2023-07-31T09:37:58;24.90;51.00
67196;DHT22;54122;53.538;49.366;2023-07-31T09:40:30;24.90;51.20
67196;DHT22;54122;53.538;49.366;2023-07-31T09:43:01;24.90;50.30
67196;DHT22;54122;53.538;49.366;2023-07-31T09:45:28;24.70;50.50
67196;DHT22;54122;53.538;49.366;2023-07-31T09:47:55;24.60;50.10
67196;DHT22;54122;53.538;49.366;2023-07-31T09:50:24;24.50;50.50
67196;DHT22;54122;53.538;49.366;2023-07-31T09:52:51;24.60;50.30
67196;DHT22;54122;53.538;49.366;2023-07-31T09:55:19;24.90;50.00
67196;DHT22;54122;53.538;49.366;2023-07-31T09:57:47;25.00;49.20
67196;DHT22;54122;53.538;49.366;2023-07-31T10:00:15;24.90;49.50
67196;DHT22;54122;53.538;49.366;2023-07-31T10:02:45;24.90;49.40
67196;DHT22;54122;53.538;49.366;2023-07-31T10:05:16;24.90;49.90
67196;DHT22;54122;53.538;49.366;2023-07-31T10:08:18;25.00;50.00
67196;DHT22;54122;53.538;49.366;2023-07-31T10:10:36;25.10;49.80
67196;DHT22;54122;53.538;49.366;2023-07-31T10:13:05;25.00;49.50
67196;DHT22;54122;53.538;49.366;2023-07-31T10:15:34;24.80;50.10
67196;DHT22;54122;53.538;49.366;2023-07-31T10:18:02;24.70;50.00
67196;DHT22;54122;53.538;49.366;2023-07-31T10:20:29;24.60;49.90
67196;DHT22;54122;53.538;49.366;2023-07-31T10:22:56;24.60;50.60
67196;DHT22;54122;53.538;49.366;2023-07-31T10:25:22;24.70;50.40
67196;DHT22;54122;53.538;49.366;2023-07-31T10:27:50;24.80;50.60
67196;DHT22;54122;53.538;49.366;2023-07-31T10:30:22;24.90;49.90
67196;DHT22;54122;53.538;49.366;2023-07-31T10:32:53;24.80;49.90
67196;DHT22;54122;53.538;49.366;2023-07-31T10:35:20;24.70;49.50
67196;DHT22;54122;53.538;49.366;2023-07-31T10:37:48;24.30;50.20
67196;DHT22;54122;53.538;49.366;2023-07-31T10:40:27;23.90;50.30
67196;DHT22;54122;53.538;49.366;2023-07-31T10:42:57;23.70;51.40
67196;DHT22;54122;53.538;49.366;2023-07-31T10:45:37;23.50;52.50
67196;DHT22;54122;53.538;49.366;2023-07-31T10:48:13;23.30;51.80
67196;DHT22;54122;53.538;49.366;2023-07-31T10:50:55;23.20;53.70
67196;DHT22;54122;53.538;49.366;2023-07-31T10:53:26;23.20;53.00
67196;DHT22;54122;53.538;49.366;2023-07-31T10:55:52;23.10;53.50
67196;DHT22;54122;53.538;49.366;2023-07-31T10:58:20;23.00;54.00
67196;DHT22;54122;53.538;49.366;2023-07-31T11:00:49;23.00;54.40
67196;DHT22;54122;53.538;49.366;2023-07-31T11:03:19;23.00;54.90
67196;DHT22;54122;53.538;49.366;2023-07-31T11:06:04;23.00;55.30
67196;DHT22;54122;53.538;49.366;2023-07-31T11:08:32;23.10;55.70
67196;DHT22;54122;53.538;49.366;2023-07-31T11:13:29;23.40;55.70
67196;DHT22;54122;53.538;49.366;2023-07-31T11:15:55;23.60;55.10
67196;DHT22;54122;53.538;49.366;2023-07-31T11:18:22;23.80;54.50
67196;DHT22;54122;53.538;49.366;2023-07-31T11:20:48;24.00;54.00
67196;DHT22;54122;53.538;49.366;2023-07-31T11:23:16;24.00;53.60
67196;DHT22;54122;53.538;49.366;2023-07-31T11:25:43;24.10;53.30
67196;DHT22;54122;53.538;49.366;2023-07-31T11:28:11;24.10;53.40
67196;DHT22;54122;53.538;49.366;2023-07-31T11:30:38;24.00;53.10
67196;DHT22;54122;53.538;49.366;2023-07-31T11:33:06;23.90;53.50
67196;DHT22;54122;53.538;49.366;2023-07-31T11:35:34;23.80;53.80
67196;DHT22;54122;53.538;49.366;2023-07-31T11:38:01;23.70;54.50
67196;DHT22;54122;53.538;49.366;2023-07-31T11:40:28;23.50;54.70
67196;DHT22;54122;53.538;49.366;2023-07-31T11:42:56;23.50;55.20
67196;DHT22;54122;53.538;49.366;2023-07-31T11:45:25;23.30;55.20
67196;DHT22;54122;53.538;49.366;2023-07-31T11:47:54;23.30;55.80
67196;DHT22;54122;53.538;49.366;2023-07-31T11:50:20;23.30;56.00
67196;DHT22;54122;53.538;49.366;2023-07-31T11:52:47;23.40;56.00
67196;DHT22;54122;53.538;49.366;2023-07-31T11:55:15;23.40;56.00
67196;DHT22;54122;53.538;49.366;2023-07-31T11:57:43;23.40;56.20
67196;DHT22;54122;53.538;49.366;2023-07-31T12:00:12;23.40;56.40
67196;DHT22;54122;53.538;49.366;2023-07-31T12:02:40;23.40;56.40
67196;DHT22;54122;53.538;49.366;2023-07-31T12:05:11;23.50;56.30
67196;DHT22;54122;53.538;49.366;2023-07-31T12:08:08;23.70;56.00
67196;DHT22;54122;53.538;49.366;2023-07-31T12:10:34;23.90;55.50
67196;DHT22;54122;53.538;49.366;2023-07-31T12:13:05;24.10;54.90
67196;DHT22;54122;53.538;49.366;2023-07-31T12:15:43;24.20;54.60
67196;DHT22;54122;53.538;49.366;2023-07-31T12:18:14;24.30;54.40
67196;DHT22;54122;53.538;49.366;2023-07-31T12:20:47;24.30;54.20
67196;DHT22;54122;53.538;49.366;2023-07-31T12:23:32;24.30;54.30
67196;DHT22;54122;53.538;49.366;2023-07-31T12:26:10;24.30;54.40
67196;DHT22;54122;53.538;49.366;2023-07-31T12:28:45;24.30;54.30
67196;DHT22;54122;53.538;49.366;2023-07-31T12:33:40;24.70;53.90
67196;DHT22;54122;53.538;49.366;2023-07-31T12:36:13;25.00;53.50
67196;DHT22;54122;53.538;49.366;2023-07-31T12:38:40;25.20;52.80
67196;DHT22;54122;53.538;49.366;2023-07-31T12:41:07;25.30;52.60
67196;DHT22;54122;53.538;49.366;2023-07-31T12:43:37;25.50;52.10
67196;DHT22;54122;53.538;49.366;2023-07-31T12:46:04;25.70;51.80
67196;DHT22;54122;53.538;49.366;2023-07-31T12:48:31;25.90;51.50
67196;DHT22;54122;53.538;49.366;2023-07-31T12:50:58;26.10;50.60
67196;DHT22;54122;53.538;49.366;2023-07-31T12:53:24;26.00;50.80
67196;DHT22;54122;53.538;49.366;2023-07-31T12:55:50;26.10;50.90
67196;DHT22;54122;53.538;49.366;2023-07-31T12:58:16;26.20;50.90
67196;DHT22;54122;53.538;49.366;2023-07-31T13:00:42;26.10;50.80
67196;DHT22;54122;53.538;49.366;2023-07-31T13:03:09;25.80;51.10
67196;DHT22;54122;53.538;49.366;2023-07-31T13:05:35;25.20;51.40
67196;DHT22;54122;53.538;49.366;2023-07-31T13:08:02;24.90;52.30
67196;DHT22;54122;53.538;49.366;2023-07-31T13:10:28;24.80;53.20
67196;DHT22;54122;53.538;49.366;2023-07-31T13:12:56;24.90;53.20
67196;DHT22;54122;53.538;49.366;2023-07-31T13:15:22;25.00;53.10
67196;DHT22;54122;53.538;49.366;2023-07-31T13:17:49;25.10;53.00
67196;DHT22;54122;53.538;49.366;2023-07-31T13:20:15;25.30;52.50
67196;DHT22;54122;53.538;49.366;2023-07-31T13:22:41;25.50;52.30
67196;DHT22;54122;53.538;49.366;2023-07-31T13:25:08;25.70;52.10
67196;DHT22;54122;53.538;49.366;2023-07-31T13:27:35;25.60;52.30
67196;DHT22;54122;53.538;49.366;2023-07-31T13:30:02;25.30;52.90
67196;DHT22;54122;53.538;49.366;2023-07-31T13:32:29;25.10;53.80
67196;DHT22;54122;53.538;49.366;2023-07-31T13:34:55;24.90;54.20
67196;DHT22;54122;53.538;49.366;2023-07-31T13:37:22;24.70;54.30
67196;DHT22;54122;53.538;49.366;2023-07-31T13:39:48;24.60;54.70
67196;DHT22;54122;53.538;49.366;2023-07-31T13:42:14;24.50;55.20
67196;DHT22;54122;53.538;49.366;2023-07-31T13:44:42;24.50;55.40
67196;DHT22;54122;53.538;49.366;2023-07-31T13:47:09;24.40;55.40
67196;DHT22;54122;53.538;49.366;2023-07-31T13:49:36;24.40;54.80
67196;DHT22;54122;53.538;49.366;2023-07-31T13:52:03;24.20;54.90
67196;DHT22;54122;53.538;49.366;2023-07-31T13:54:29;24.20;55.10
67196;DHT22;54122;53.538;49.366;2023-07-31T13:56:56;24.10;55.20
67196;DHT22;54122;53.538;49.366;2023-07-31T13:59:22;23.90;55.40
67196;DHT22;54122;53.538;49.366;2023-07-31T14:01:48;23.90;55.50
67196;DHT22;54122;53.538;49.366;2023-07-31T14:04:15;23.90;55.50
67196;DHT22;54122;53.538;49.366;2023-07-31T14:06:43;23.80;55.90
67196;DHT22;54122;53.538;49.366;2023-07-31T14:09:10;23.70;56.10
67196;DHT22;54122;53.538;49.366;2023-07-31T14:11:36;23.60;56.60
67196;DHT22;54122;53.538;49.366;2023-07-31T14:14:02;23.60;57.50
67196;DHT22;54122;53.538;49.366;2023-07-31T14:16:29;23.50;57.70
67196;DHT22;54122;53.538;49.366;2023-07-31T14:18:55;23.50;57.60
67196;DHT22;54122;53.538;49.366;2023-07-31T14:21:21;23.60;57.60
67196;DHT22;54122;53.538;49.366;2023-07-31T14:23:48;23.70;57.60
67196;DHT22;54122;53.538;49.366;2023-07-31T14:26:14;23.80;57.50
67196;DHT22;54122;53.538;49.366;2023-07-31T14:28:40;24.00;56.90
67196;DHT22;54122;53.538;49.366;2023-07-31T14:31:06;24.10;56.70
67196;DHT22;54122;53.538;49.366;2023-07-31T14:33:32;24.10;56.40
67196;DHT22;54122;53.538;49.366;2023-07-31T14:35:59;24.20;56.30
67196;DHT22;54122;53.538;49.366;2023-07-31T14:38:25;24.20;56.10
67196;DHT22;54122;53.538;49.366;2023-07-31T14:40:56;24.30;56.30
67196;DHT22;54122;53.538;49.366;2023-07-31T14:43:23;24.20;56.40
67196;DHT22;54122;53.538;49.366;2023-07-31T14:45:49;24.30;56.20
67196;DHT22;54122;53.538;49.366;2023-07-31T14:48:15;24.30;56.10
67196;DHT22;54122;53.538;49.366;2023-07-31T14:50:41;24.40;55.90
67196;DHT22;54122;53.538;49.366;2023-07-31T14:53:08;24.40;56.00
67196;DHT22;54122;53.538;49.366;2023-07-31T14:55:34;24.30;56.20
67196;DHT22;54122;53.538;49.366;2023-07-31T14:58:01;24.20;56.60
67196;DHT22;54122;53.538;49.366;2023-07-31T15:00:27;24.10;56.80
67196;DHT22;54122;53.538;49.366;2023-07-31T15:02:53;24.00;57.10
67196;DHT22;54122;53.538;49.366;2023-07-31T15:05:19;23.80;57.70
67196;DHT22;54122;53.538;49.366;2023-07-31T15:07:46;23.70;58.20
67196;DHT22;54122;53.538;49.366;2023-07-31T15:10:12;23.60;58.80
67196;DHT22;54122;53.538;49.366;2023-07-31T15:12:40;23.50;58.80
67196;DHT22;54122;53.538;49.366;2023-07-31T15:15:07;23.50;59.30
67196;DHT22;54122;53.538;49.366;2023-07-31T15:17:33;23.40;59.30
67196;DHT22;54122;53.538;49.366;2023-07-31T15:20:00;23.40;59.30
67196;DHT22;54122;53.538;49.366;2023-07-31T15:22:26;23.40;59.70
67196;DHT22;54122;53.538;49.366;2023-07-31T15:24:52;23.40;60.10
67196;DHT22;54122;53.538;49.366;2023-07-31T15:27:18;23.40;60.30
67196;DHT22;54122;53.538;49.366;2023-07-31T15:29:44;23.30;60.60
67196;DHT22;54122;53.538;49.366;2023-07-31T15:32:11;23.30;60.80